Time;durP1;ratioP1;P1;durP2;ratioP2;P2;SDS_P1;SDS_P2;PMS_P1;PMS_P2;Temp;Humidity;BMP_temperature;BMP_pressure;BME280_temperature;BME280_humidity;BME280_pressure;Samples;Min_cycle;Max_cycle;Signal;HPM_P1;HPM_P2
2021/06/30 00:01:58;;;;;;;1.42;0.90;;;;;21.40;101014.00;;;;5106842;28;20674;-77
2021/06/30 00:04:25;;;;;;;3.58;0.80;;;;;21.40;101016.00;;;;5108410;28;20193;-76
2021/06/30 00:06:52;;;;;;;1.52;1.35;;;;;21.40;101010.00;;;;5104778;28;20311;-78
2021/06/30 00:09:20;;;;;;;3.53;0.93;;;;;21.40;101012.00;;;;5107872;28;20197;-78
2021/06/30 00:11:47;;;;;;;1.23;1.13;;;;;21.40;101017.00;;;;5108507;28;20205;-77
2021/06/30 00:14:15;;;;;;;1.27;0.88;;;;;21.40;101008.00;;;;5109053;28;20742;-78
2021/06/30 00:16:43;;;;;;;2.80;1.20;;;;;21.40;101010.00;;;;5106637;28;20190;-78
2021/06/30 00:19:13;;;;;;;1.17;0.88;;;;;21.30;101005.00;;;;5108979;28;20205;-78
2021/06/30 00:21:41;;;;;;;1.40;1.05;;;;;21.30;101006.00;;;;5107159;28;20197;-78
2021/06/30 00:24:09;;;;;;;2.35;1.30;;;;;21.30;101010.00;;;;5107577;28;20197;-77
2021/06/30 00:26:37;;;;;;;1.67;1.17;;;;;21.30;101009.00;;;;5106998;28;20190;-78
2021/06/30 00:29:06;;;;;;;1.77;1.45;;;;;21.30;101005.00;;;;5107766;28;20208;-78
2021/06/30 00:31:34;;;;;;;1.27;1.10;;;;;21.30;101009.00;;;;5105595;28;20205;-78
2021/06/30 00:34:03;;;;;;;1.35;1.25;;;;;21.30;101009.00;;;;5107924;28;20205;-78
2021/06/30 00:36:33;;;;;;;1.23;1.08;;;;;21.20;101012.00;;;;5105855;28;20224;-77
2021/06/30 00:39:02;;;;;;;2.97;1.38;;;;;21.30;101004.00;;;;5100218;28;20221;-77
2021/06/30 00:41:30;;;;;;;1.25;1.10;;;;;21.30;101005.00;;;;5111208;28;20197;-79
2021/06/30 00:43:57;;;;;;;1.35;1.13;;;;;21.30;101009.00;;;;5105531;28;20206;-78
2021/06/30 00:46:26;;;;;;;1.35;1.15;;;;;21.30;101001.00;;;;5110898;28;20659;-77
2021/06/30 00:48:53;;;;;;;3.80;1.33;;;;;21.30;100999.00;;;;5112742;28;20547;-77
2021/06/30 00:51:21;;;;;;;1.63;1.17;;;;;21.30;100994.00;;;;5111406;28;20198;-77
2021/06/30 00:53:49;;;;;;;1.60;1.23;;;;;21.20;100988.00;;;;5111010;28;20570;-78
2021/06/30 00:56:22;;;;;;;1.40;0.85;;;;;21.20;100986.00;;;;5107464;28;20189;-77
2021/06/30 00:58:51;;;;;;;1.60;0.95;;;;;21.20;100990.00;;;;5108598;28;20636;-78
2021/06/30 01:01:19;;;;;;;1.10;1.00;;;;;21.20;100987.00;;;;5108189;28;20738;-78
2021/06/30 01:03:46;;;;;;;1.30;0.88;;;;;21.20;100986.00;;;;5110721;28;20197;-78
2021/06/30 01:06:14;;;;;;;1.05;0.95;;;;;21.20;100978.00;;;;5111818;28;20200;-77
2021/06/30 01:08:42;;;;;;;1.35;0.95;;;;;21.20;100979.00;;;;5110354;28;20217;-77
2021/06/30 01:11:12;;;;;;;1.45;0.90;;;;;21.20;100973.00;;;;5111521;28;20194;-77
2021/06/30 01:13:40;;;;;;;1.23;1.13;;;;;21.20;100980.00;;;;5112025;28;20204;-77
2021/06/30 01:16:08;;;;;;;2.55;1.10;;;;;21.20;100982.00;;;;5111222;28;20202;-77
2021/06/30 01:18:38;;;;;;;1.30;1.02;;;;;21.20;100982.00;;;;5110227;28;20247;-78
2021/06/30 01:21:07;;;;;;;2.05;1.15;;;;;21.20;100980.00;;;;5110679;28;20190;-78
2021/06/30 01:23:35;;;;;;;2.53;1.30;;;;;21.20;100979.00;;;;5108770;28;20668;-77
2021/06/30 01:26:03;;;;;;;1.30;1.15;;;;;21.20;100984.00;;;;5112121;28;20201;-77
2021/06/30 01:28:30;;;;;;;1.40;1.17;;;;;21.20;100973.00;;;;5111740;28;20229;-78
2021/06/30 01:30:58;;;;;;;1.08;0.98;;;;;21.20;100978.00;;;;5110733;28;20197;-78
2021/06/30 01:33:25;;;;;;;1.15;1.05;;;;;21.20;100979.00;;;;5110136;28;20209;-79
2021/06/30 01:35:53;;;;;;;1.45;1.35;;;;;21.20;100971.00;;;;5110658;28;20201;-78
2021/06/30 01:38:24;;;;;;;2.70;1.33;;;;;21.10;100976.00;;;;5110098;28;20229;-77
2021/06/30 01:40:54;;;;;;;2.40;1.38;;;;;21.10;100980.00;;;;5110908;28;20193;-78
2021/06/30 01:43:21;;;;;;;1.38;1.23;;;;;21.10;100973.00;;;;5110637;28;20194;-78
2021/06/30 01:45:51;;;;;;;3.08;1.23;;;;;21.10;100974.00;;;;5105808;28;20193;-77
2021/06/30 01:48:18;;;;;;;1.77;1.08;;;;;21.10;100980.00;;;;5107528;28;20727;-77
2021/06/30 01:50:46;;;;;;;1.77;1.20;;;;;21.10;100983.00;;;;5097137;28;20210;-77
2021/06/30 01:53:13;;;;;;;1.50;1.40;;;;;21.10;100980.00;;;;5110556;28;20189;-77
2021/06/30 01:55:41;;;;;;;1.35;1.00;;;;;21.10;100977.00;;;;5108614;28;20205;-77
2021/06/30 01:58:09;;;;;;;1.25;1.15;;;;;21.10;100982.00;;;;5110295;28;20212;-77
2021/06/30 02:00:37;;;;;;;1.52;1.30;;;;;21.10;100979.00;;;;5108091;28;20201;-77
2021/06/30 02:03:04;;;;;;;2.25;1.35;;;;;21.10;100982.00;;;;5109190;28;20198;-77
2021/06/30 02:05:32;;;;;;;3.05;1.30;;;;;21.10;100970.00;;;;5110229;28;20198;-78
2021/06/30 02:08:01;;;;;;;2.28;1.25;;;;;21.10;100971.00;;;;5108605;28;20224;-78
2021/06/30 02:10:29;;;;;;;2.17;1.77;;;;;21.10;100972.00;;;;5109379;28;20663;-77
2021/06/30 02:12:57;;;;;;;3.17;1.70;;;;;21.10;100964.00;;;;5110518;28;20197;-77
2021/06/30 02:15:28;;;;;;;2.33;1.50;;;;;21.10;100961.00;;;;5111370;28;20189;-76
2021/06/30 02:17:57;;;;;;;2.05;1.42;;;;;21.10;100962.00;;;;5109900;28;20618;-77
2021/06/30 02:20:25;;;;;;;2.70;1.40;;;;;21.10;100954.00;;;;5111082;28;20193;-76
2021/06/30 02:22:54;;;;;;;1.58;1.48;;;;;21.10;100955.00;;;;5105714;28;20198;-77
2021/06/30 02:25:22;;;;;;;2.08;1.88;;;;;21.10;100956.00;;;;5109323;28;20201;-78
2021/06/30 02:27:51;;;;;;;3.13;1.40;;;;;21.10;100950.00;;;;5110377;28;20229;-77
2021/06/30 02:30:20;;;;;;;1.98;1.58;;;;;21.10;100947.00;;;;5109444;28;20632;-77
2021/06/30 02:32:49;;;;;;;2.08;1.52;;;;;21.10;100945.00;;;;5109538;28;20194;-77
2021/06/30 02:35:19;;;;;;;2.08;1.80;;;;;21.10;100941.00;;;;5110056;28;20252;-77
2021/06/30 02:37:47;;;;;;;2.20;1.55;;;;;21.10;100940.00;;;;5110543;28;20229;-77
2021/06/30 02:40:16;;;;;;;1.92;1.70;;;;;21.10;100937.00;;;;5109307;28;20667;-77
2021/06/30 02:42:45;;;;;;;2.08;1.60;;;;;21.10;100935.00;;;;5109585;28;20190;-77
2021/06/30 02:45:15;;;;;;;1.92;1.58;;;;;21.10;100919.00;;;;5109883;28;20193;-77
2021/06/30 02:47:44;;;;;;;1.70;1.60;;;;;21.10;100919.00;;;;5105161;28;20233;-78
2021/06/30 02:50:16;;;;;;;1.23;1.10;;;;;21.10;100920.00;;;;5110547;28;20242;-77
2021/06/30 02:52:44;;;;;;;2.10;1.85;;;;;21.10;100916.00;;;;5108490;28;20240;-77
2021/06/30 02:55:12;;;;;;;5.60;1.60;;;;;21.10;100917.00;;;;5108684;28;20198;-77
2021/06/30 02:57:39;;;;;;;1.58;1.35;;;;;21.10;100922.00;;;;5102830;28;20201;-78
2021/06/30 03:00:09;;;;;;;1.90;1.20;;;;;21.10;100926.00;;;;5108407;28;20214;-77
2021/06/30 03:02:37;;;;;;;1.65;1.23;;;;;21.10;100926.00;;;;5106899;28;20186;-79
2021/06/30 03:05:05;;;;;;;1.60;1.30;;;;;21.10;100928.00;;;;5108325;28;20197;-77
2021/06/30 03:07:33;;;;;;;1.88;1.30;;;;;21.10;100932.00;;;;5109281;28;20216;-77
2021/06/30 03:10:01;;;;;;;2.28;1.20;;;;;21.10;100931.00;;;;5097647;28;20194;-77
2021/06/30 03:12:28;;;;;;;2.25;1.35;;;;;21.10;100937.00;;;;5108122;28;20189;-77
2021/06/30 03:14:55;;;;;;;1.67;1.27;;;;;21.10;100935.00;;;;5109684;28;20224;-77
2021/06/30 03:17:23;;;;;;;1.95;1.40;;;;;21.10;100943.00;;;;5110054;28;20201;-77
2021/06/30 03:19:50;;;;;;;3.05;1.33;;;;;21.10;100943.00;;;;5108634;28;20192;-77
2021/06/30 03:22:17;;;;;;;5.10;1.73;;;;;21.10;100939.00;;;;5108727;28;20198;-77
2021/06/30 03:24:46;;;;;;;2.63;1.50;;;;;21.10;100953.00;;;;5108114;28;20190;-77
2021/06/30 03:27:13;;;;;;;2.58;1.58;;;;;21.10;100956.00;;;;5109755;28;20197;-78
2021/06/30 03:29:40;;;;;;;1.95;1.25;;;;;21.10;100961.00;;;;5108044;28;20217;-77
2021/06/30 03:32:08;;;;;;;1.58;1.25;;;;;21.10;100959.00;;;;5107637;28;20209;-78
2021/06/30 03:34:35;;;;;;;2.28;1.50;;;;;21.10;100958.00;;;;5101363;28;20197;-77
2021/06/30 03:37:02;;;;;;;1.55;1.33;;;;;21.10;100956.00;;;;5107047;28;20652;-77
2021/06/30 03:39:30;;;;;;;1.58;1.17;;;;;21.10;100955.00;;;;5107234;28;20228;-77
2021/06/30 03:41:58;;;;;;;1.83;1.60;;;;;21.10;100947.00;;;;5107415;28;20204;-78
2021/06/30 03:44:26;;;;;;;2.03;1.50;;;;;21.10;100949.00;;;;5108546;28;20208;-78
2021/06/30 03:46:53;;;;;;;4.07;1.30;;;;;21.10;100957.00;;;;5104594;28;20197;-77
2021/06/30 03:49:20;;;;;;;1.30;1.02;;;;;21.10;100954.00;;;;5103325;28;20217;-77
2021/06/30 03:51:47;;;;;;;2.20;1.80;;;;;21.10;100953.00;;;;5107251;28;20193;-78
2021/06/30 03:54:15;;;;;;;3.00;1.45;;;;;21.10;100956.00;;;;5107557;28;20194;-77
2021/06/30 03:56:42;;;;;;;1.70;1.60;;;;;21.10;100956.00;;;;5104378;28;20279;-77
2021/06/30 03:59:11;;;;;;;2.40;1.73;;;;;21.00;100961.00;;;;5097779;28;20220;-77
2021/06/30 04:01:38;;;;;;;2.40;1.67;;;;;21.00;100957.00;;;;5107331;28;20197;-77
2021/06/30 04:04:08;;;;;;;2.17;1.27;;;;;21.00;100956.00;;;;5107926;28;20197;-78
2021/06/30 04:06:37;;;;;;;1.83;1.60;;;;;21.00;100954.00;;;;5107580;28;20288;-78
2021/06/30 04:09:05;;;;;;;2.00;1.80;;;;;21.00;100957.00;;;;5106515;28;20222;-77
2021/06/30 04:11:32;;;;;;;2.03;1.38;;;;;21.00;100954.00;;;;5107807;28;20189;-77
2021/06/30 04:14:00;;;;;;;2.65;1.88;;;;;21.00;100967.00;;;;5107930;28;20201;-78
2021/06/30 04:16:28;;;;;;;2.53;1.85;;;;;20.90;100959.00;;;;5107543;28;20205;-78
2021/06/30 04:18:56;;;;;;;2.53;1.98;;;;;20.90;100970.00;;;;5107740;28;20189;-77
2021/06/30 04:21:23;;;;;;;2.33;1.88;;;;;20.90;100963.00;;;;5108437;28;20197;-78
2021/06/30 04:23:53;;;;;;;1.75;1.48;;;;;20.90;100960.00;;;;5107870;28;20205;-77
2021/06/30 04:26:21;;;;;;;2.03;1.80;;;;;20.90;100954.00;;;;5108117;28;20205;-77
2021/06/30 04:28:48;;;;;;;2.88;1.70;;;;;20.90;100957.00;;;;5108015;28;20316;-78
2021/06/30 04:31:15;;;;;;;2.50;1.63;;;;;20.90;100950.00;;;;5107684;28;20274;-78
2021/06/30 04:33:44;;;;;;;4.18;2.00;;;;;20.90;100963.00;;;;5106143;28;20212;-78
2021/06/30 04:36:11;;;;;;;1.80;1.63;;;;;20.90;100954.00;;;;5107893;28;20189;-78
2021/06/30 04:38:38;;;;;;;1.95;1.70;;;;;20.80;100955.00;;;;5106764;28;20213;-78
2021/06/30 04:41:06;;;;;;;2.22;1.88;;;;;20.90;100954.00;;;;5107972;28;20186;-78
2021/06/30 04:43:33;;;;;;;2.40;2.00;;;;;20.80;100952.00;;;;5108640;28;20251;-77
2021/06/30 04:46:00;;;;;;;1.95;1.75;;;;;20.80;100954.00;;;;5102742;28;20739;-78
2021/06/30 04:48:27;;;;;;;2.20;1.60;;;;;20.80;100955.00;;;;5107753;28;20224;-78
2021/06/30 04:50:56;;;;;;;1.75;1.42;;;;;20.80;100955.00;;;;5107843;28;20193;-78
2021/06/30 04:53:23;;;;;;;2.05;1.85;;;;;20.80;100957.00;;;;5100707;28;20217;-78
2021/06/30 04:55:50;;;;;;;2.38;1.70;;;;;20.80;100959.00;;;;5103229;28;20283;-77
2021/06/30 04:58:18;;;;;;;2.70;1.77;;;;;20.80;100957.00;;;;5089099;28;20205;-78
2021/06/30 05:00:46;;;;;;;1.63;1.40;;;;;20.80;100963.00;;;;5096926;28;20237;-77
2021/06/30 05:03:13;;;;;;;2.00;1.50;;;;;20.80;100957.00;;;;5093623;28;20205;-77
2021/06/30 05:05:40;;;;;;;2.42;1.50;;;;;20.80;100949.00;;;;5091031;28;20194;-79
2021/06/30 05:08:09;;;;;;;1.67;1.58;;;;;20.80;100948.00;;;;5088587;28;20563;-78
2021/06/30 05:10:36;;;;;;;1.60;1.30;;;;;20.80;100950.00;;;;5087064;28;20198;-78
2021/06/30 05:13:03;;;;;;;1.75;1.50;;;;;20.80;100956.00;;;;5091796;28;20643;-78
2021/06/30 05:15:31;;;;;;;2.20;1.60;;;;;20.80;100952.00;;;;5088548;28;20195;-78
2021/06/30 05:17:58;;;;;;;2.85;1.40;;;;;20.80;100959.00;;;;5087814;28;20206;-77
2021/06/30 05:20:25;;;;;;;1.83;1.50;;;;;20.80;100964.00;;;;5087691;28;20216;-77
2021/06/30 05:22:52;;;;;;;1.90;1.48;;;;;20.80;100957.00;;;;5107284;28;20197;-77
2021/06/30 05:25:21;;;;;;;2.30;1.52;;;;;20.80;100953.00;;;;5109512;28;20225;-78
2021/06/30 05:27:48;;;;;;;2.00;1.50;;;;;20.80;100957.00;;;;5098077;28;20205;-78
2021/06/30 05:30:17;;;;;;;3.08;1.85;;;;;20.80;100957.00;;;;5110654;28;20674;-78
2021/06/30 05:32:44;;;;;;;2.38;2.03;;;;;20.80;100960.00;;;;5109562;28;20212;-78
2021/06/30 05:35:12;;;;;;;1.70;1.52;;;;;20.80;100958.00;;;;5110655;28;20194;-78
2021/06/30 05:37:39;;;;;;;2.25;2.05;;;;;20.80;100964.00;;;;5102907;28;20224;-79
2021/06/30 05:40:08;;;;;;;2.67;1.92;;;;;20.80;100970.00;;;;5111720;28;20208;-78
2021/06/30 05:42:38;;;;;;;1.42;1.27;;;;;20.80;100969.00;;;;5110982;28;20197;-79
2021/06/30 05:45:07;;;;;;;4.25;1.67;;;;;20.80;100976.00;;;;5110806;28;20488;-79
2021/06/30 05:47:34;;;;;;;2.50;1.85;;;;;20.80;100969.00;;;;5109515;28;20773;-80
2021/06/30 05:50:01;;;;;;;1.67;1.52;;;;;20.80;100975.00;;;;5111344;28;20217;-79
2021/06/30 05:52:29;;;;;;;2.03;1.60;;;;;20.80;100975.00;;;;5109986;28;20205;-79
2021/06/30 05:54:56;;;;;;;2.55;2.08;;;;;20.80;100976.00;;;;5111916;28;20197;-79
2021/06/30 05:57:23;;;;;;;2.15;1.63;;;;;20.80;100972.00;;;;5098108;28;20194;-80
2021/06/30 05:59:52;;;;;;;1.52;1.38;;;;;20.80;100973.00;;;;5091579;28;20217;-80
2021/06/30 06:02:19;;;;;;;2.08;1.45;;;;;20.90;100973.00;;;;5105825;28;20205;-79
2021/06/30 06:04:46;;;;;;;1.60;1.50;;;;;20.90;100973.00;;;;5108461;28;20213;-79
2021/06/30 06:07:13;;;;;;;1.98;1.75;;;;;20.90;100978.00;;;;5107433;28;20275;-81
2021/06/30 06:09:41;;;;;;;2.60;1.70;;;;;20.90;100975.00;;;;5100583;28;20221;-79
2021/06/30 06:12:08;;;;;;;1.95;1.50;;;;;20.90;100980.00;;;;5110864;28;20194;-79
2021/06/30 06:14:35;;;;;;;2.40;1.60;;;;;20.90;100982.00;;;;5098567;28;20202;-80
2021/06/30 06:17:04;;;;;;;1.88;1.67;;;;;20.90;100985.00;;;;5106673;28;20246;-80
2021/06/30 06:19:33;;;;;;;2.17;1.70;;;;;20.90;100978.00;;;;5105666;28;20201;-79
2021/06/30 06:22:00;;;;;;;1.70;1.33;;;;;20.90;100977.00;;;;5109287;28;20209;-79
2021/06/30 06:24:28;;;;;;;1.98;1.80;;;;;20.90;100979.00;;;;5087700;28;20198;-79
2021/06/30 06:26:55;;;;;;;1.90;1.23;;;;;20.90;100976.00;;;;5106311;28;20218;-79
2021/06/30 06:29:23;;;;;;;4.10;1.60;;;;;20.90;100981.00;;;;5094660;28;20228;-79
2021/06/30 06:31:50;;;;;;;2.50;1.75;;;;;21.00;100985.00;;;;5108888;28;20206;-79
2021/06/30 06:34:20;;;;;;;3.17;1.67;;;;;21.00;100985.00;;;;5103800;28;20648;-80
2021/06/30 06:36:48;;;;;;;1.95;1.48;;;;;21.00;100985.00;;;;5109398;28;20292;-79
2021/06/30 06:39:15;;;;;;;2.97;1.60;;;;;21.00;100977.00;;;;5106608;28;20225;-80
2021/06/30 06:41:43;;;;;;;1.50;1.27;;;;;21.00;100984.00;;;;5110190;28;20612;-80
2021/06/30 06:44:10;;;;;;;1.67;1.33;;;;;21.00;100979.00;;;;5090088;28;20583;-80
2021/06/30 06:46:38;;;;;;;1.88;1.38;;;;;21.00;100985.00;;;;5089913;28;20201;-80
2021/06/30 06:49:06;;;;;;;2.70;1.70;;;;;21.00;100979.00;;;;5090612;28;20623;-80
2021/06/30 06:51:35;;;;;;;1.60;1.40;;;;;21.00;100980.00;;;;5104731;28;20555;-80
2021/06/30 06:54:03;;;;;;;3.65;1.67;;;;;21.00;100979.00;;;;5108058;28;20216;-81
2021/06/30 06:56:30;;;;;;;2.10;1.75;;;;;21.00;100976.00;;;;5101504;28;20201;-81
2021/06/30 06:58:58;;;;;;;2.00;1.80;;;;;21.00;100982.00;;;;5108083;28;20210;-81
2021/06/30 07:01:26;;;;;;;1.50;1.33;;;;;21.10;100973.00;;;;5104150;28;20201;-81
2021/06/30 07:03:53;;;;;;;1.85;1.60;;;;;21.10;100979.00;;;;5108575;28;20659;-81
2021/06/30 07:06:21;;;;;;;1.80;1.30;;;;;21.10;100977.00;;;;5109425;28;20205;-80
2021/06/30 07:08:49;;;;;;;2.05;1.60;;;;;21.10;100981.00;;;;5109300;28;20225;-81
2021/06/30 07:11:17;;;;;;;1.50;1.40;;;;;21.10;100974.00;;;;5109258;28;20219;-80
2021/06/30 07:13:44;;;;;;;1.83;1.38;;;;;21.10;100989.00;;;;5108296;28;20197;-81
2021/06/30 07:16:11;;;;;;;1.83;1.20;;;;;21.10;100985.00;;;;5108696;28;20194;-80
2021/06/30 07:18:39;;;;;;;2.10;1.55;;;;;21.10;100988.00;;;;5107056;28;20209;-81
2021/06/30 07:21:08;;;;;;;1.75;1.65;;;;;21.10;100981.00;;;;5106389;28;20201;-81
2021/06/30 07:23:36;;;;;;;2.38;1.85;;;;;21.10;100988.00;;;;5107935;28;20211;-81
2021/06/30 07:26:06;;;;;;;2.22;1.45;;;;;21.10;100990.00;;;;5108788;28;20194;-81
2021/06/30 07:28:33;;;;;;;3.38;1.80;;;;;21.10;100982.00;;;;5108355;28;20781;-80
2021/06/30 07:31:00;;;;;;;2.95;1.67;;;;;21.20;100989.00;;;;5109161;28;20213;-80
2021/06/30 07:33:30;;;;;;;1.13;1.02;;;;;21.20;100987.00;;;;5107251;28;20198;-79
2021/06/30 07:35:57;;;;;;;1.23;1.08;;;;;21.20;100985.00;;;;5108862;28;20193;-80
2021/06/30 07:38:25;;;;;;;2.03;1.45;;;;;21.20;100985.00;;;;5104397;28;20221;-80
2021/06/30 07:40:53;;;;;;;1.38;1.23;;;;;21.20;100987.00;;;;5106070;28;20563;-86
2021/06/30 07:43:21;;;;;;;2.35;1.50;;;;;21.20;100986.00;;;;5109138;28;20205;-82
2021/06/30 07:45:49;;;;;;;1.40;1.30;;;;;21.20;100982.00;;;;5106701;28;20205;-84
2021/06/30 07:48:16;;;;;;;1.75;1.42;;;;;21.20;100986.00;;;;5108802;28;20200;-84
2021/06/30 07:50:43;;;;;;;1.45;1.35;;;;;21.20;100986.00;;;;5097086;28;20257;-83
2021/06/30 07:53:11;;;;;;;1.63;1.15;;;;;21.20;100991.00;;;;5099677;28;20197;-83
2021/06/30 07:55:38;;;;;;;1.75;1.55;;;;;21.20;100990.00;;;;5099163;28;20205;-83
2021/06/30 07:58:06;;;;;;;1.17;0.93;;;;;21.20;100997.00;;;;5101687;28;20196;-84
2021/06/30 08:00:34;;;;;;;1.20;1.10;;;;;21.20;100998.00;;;;5107391;28;20221;-83
2021/06/30 08:03:01;;;;;;;1.58;1.48;;;;;21.30;100997.00;;;;5107905;28;20222;-82
2021/06/30 08:05:31;;;;;;;1.98;1.20;;;;;21.30;101000.00;;;;5108215;28;20209;-82
2021/06/30 08:07:58;;;;;;;1.52;1.08;;;;;21.30;101005.00;;;;5103981;28;20293;-83
2021/06/30 08:10:26;;;;;;;1.48;1.20;;;;;21.30;101002.00;;;;5087897;28;20222;-83
2021/06/30 08:12:53;;;;;;;2.65;1.25;;;;;21.30;101002.00;;;;5088371;28;20766;-84
2021/06/30 08:15:20;;;;;;;1.50;1.33;;;;;21.30;101005.00;;;;5087498;28;20209;-83
2021/06/30 08:17:49;;;;;;;1.48;1.38;;;;;21.30;101005.00;;;;5088010;28;20202;-84
2021/06/30 08:20:17;;;;;;;5.30;1.60;;;;;21.30;101006.00;;;;5094630;28;20208;-85
2021/06/30 08:22:45;;;;;;;1.60;1.45;;;;;21.40;101004.00;;;;5108057;28;20198;-83
2021/06/30 08:25:12;;;;;;;7.53;1.40;;;;;21.40;101001.00;;;;5104242;28;20572;-85
2021/06/30 08:27:40;;;;;;;1.85;1.65;;;;;21.40;101006.00;;;;5107469;28;20193;-84
2021/06/30 08:30:09;;;;;;;2.05;1.50;;;;;21.40;101008.00;;;;5108654;28;20217;-84
2021/06/30 08:32:36;;;;;;;1.88;1.42;;;;;21.30;101013.00;;;;5103624;28;20372;-84
2021/06/30 08:35:05;;;;;;;1.63;1.30;;;;;21.30;101012.00;;;;5098350;28;20189;-85
2021/06/30 08:37:39;;;;;;;1.50;1.40;;;;;21.40;101016.00;;;;5105902;28;20205;-83
2021/06/30 08:40:08;;;;;;;2.55;1.55;;;;;21.30;101018.00;;;;5099079;28;20624;-84
2021/06/30 08:42:35;;;;;;;2.15;1.55;;;;;21.30;101022.00;;;;5108272;28;20200;-84
2021/06/30 08:45:02;;;;;;;2.00;1.75;;;;;21.30;101020.00;;;;5105926;28;20197;-83
2021/06/30 08:47:35;;;;;;;3.22;1.92;;;;;21.30;101019.00;;;;5106839;28;20234;-83
2021/06/30 08:50:06;;;;;;;2.53;1.75;;;;;21.30;101013.00;;;;5103798;28;20221;-83
2021/06/30 08:52:36;;;;;;;1.75;1.65;;;;;21.30;101022.00;;;;5106026;28;20227;-81
2021/06/30 08:55:05;;;;;;;2.63;1.77;;;;;21.30;101019.00;;;;5107736;28;20204;-83
2021/06/30 08:57:33;;;;;;;2.17;1.85;;;;;21.30;101015.00;;;;5098464;28;20675;-83
2021/06/30 09:00:01;;;;;;;3.80;2.22;;;;;21.30;101018.00;;;;5109962;28;20228;-84
2021/06/30 09:02:28;;;;;;;1.95;1.75;;;;;21.30;101017.00;;;;5107517;28;20210;-82
2021/06/30 09:07:44;;;;;;;2.63;1.92;;;;;21.20;101021.00;;;;5106002;27;20207;-84
2021/06/30 09:10:30;;;;;;;2.40;1.40;;;;;21.20;101031.00;;;;5110002;28;20218;-84
2021/06/30 09:12:57;;;;;;;2.70;2.03;;;;;21.30;101028.00;;;;5093737;28;20194;-83
2021/06/30 09:15:29;;;;;;;2.15;1.95;;;;;21.30;101023.00;;;;5099558;28;20193;-83
2021/06/30 09:18:16;;;;;;;2.92;2.10;;;;;21.30;101029.00;;;;5107455;28;20197;-84
2021/06/30 09:20:43;;;;;;;2.33;1.92;;;;;21.30;101028.00;;;;5103139;28;20205;-84
2021/06/30 09:23:12;;;;;;;2.50;2.20;;;;;21.30;101033.00;;;;5110889;28;20194;-83
2021/06/30 09:25:41;;;;;;;2.75;2.15;;;;;21.30;101038.00;;;;5100359;28;20202;-82
2021/06/30 09:28:17;;;;;;;2.45;1.83;;;;;21.30;101038.00;;;;5109352;28;20205;-82
2021/06/30 09:31:04;;;;;;;1.67;1.40;;;;;21.20;101041.00;;;;5101454;28;20827;-82
2021/06/30 09:33:46;;;;;;;1.83;1.52;;;;;21.20;101041.00;;;;5103458;28;20197;-81
2021/06/30 09:36:14;;;;;;;1.83;1.70;;;;;21.30;101039.00;;;;5100597;28;20189;-82
2021/06/30 09:38:44;;;;;;;2.78;1.63;;;;;21.30;101044.00;;;;5105333;28;20233;-80
2021/06/30 09:41:25;;;;;;;2.38;2.00;;;;;21.30;101043.00;;;;5101667;28;20262;-82
2021/06/30 09:44:02;;;;;;;4.05;1.98;;;;;21.30;101043.00;;;;5099071;28;20198;-84
2021/06/30 09:46:30;;;;;;;1.88;1.67;;;;;21.40;101044.00;;;;5098438;28;20240;-82
2021/06/30 09:48:59;;;;;;;2.40;1.60;;;;;21.40;101043.00;;;;5106445;28;20205;-83
2021/06/30 09:51:27;;;;;;;2.05;1.65;;;;;21.40;101046.00;;;;5109273;28;20298;-82
2021/06/30 09:54:03;;;;;;;1.88;1.65;;;;;21.40;101044.00;;;;5105256;28;20201;-82
2021/06/30 09:56:34;;;;;;;2.15;1.95;;;;;21.40;101053.00;;;;5100330;28;20735;-81
2021/06/30 09:59:21;;;;;;;2.90;1.73;;;;;21.40;101041.00;;;;5100336;28;20231;-81
2021/06/30 10:01:58;;;;;;;4.55;1.60;;;;;21.30;101046.00;;;;5100103;28;20556;-81
2021/06/30 10:04:30;;;;;;;3.35;2.08;;;;;21.30;101054.00;;;;5097397;28;20229;-80
2021/06/30 10:06:59;;;;;;;1.80;1.50;;;;;21.30;101051.00;;;;5101149;28;20704;-81
2021/06/30 10:09:29;;;;;;;1.63;1.35;;;;;21.30;101051.00;;;;5096667;28;20206;-81
2021/06/30 10:11:59;;;;;;;3.50;1.52;;;;;21.30;101047.00;;;;5098293;28;20198;-79
2021/06/30 10:14:27;;;;;;;1.38;1.27;;;;;21.30;101049.00;;;;5101326;28;20208;-81
2021/06/30 10:16:55;;;;;;;2.25;1.70;;;;;21.30;101049.00;;;;5094593;28;20206;-81
2021/06/30 10:19:22;;;;;;;1.85;1.60;;;;;21.40;101044.00;;;;5107046;28;20193;-81
2021/06/30 10:21:50;;;;;;;2.97;1.30;;;;;21.40;101043.00;;;;5107927;28;20193;-81
2021/06/30 10:24:19;;;;;;;1.42;1.30;;;;;21.40;101053.00;;;;5110597;28;20197;-81
2021/06/30 10:26:48;;;;;;;1.67;1.30;;;;;21.40;101053.00;;;;5109683;28;20589;-82
2021/06/30 10:29:16;;;;;;;1.70;1.40;;;;;21.40;101060.00;;;;5111044;28;20197;-82
2021/06/30 10:31:45;;;;;;;2.33;1.38;;;;;21.40;101068.00;;;;5108266;28;20670;-81
2021/06/30 10:34:14;;;;;;;1.92;1.45;;;;;21.40;101061.00;;;;5103482;28;20189;-82
2021/06/30 10:36:51;;;;;;;4.82;2.10;;;;;21.30;101060.00;;;;5109132;28;20193;-81
2021/06/30 10:39:20;;;;;;;2.90;1.25;;;;;21.40;101069.00;;;;5100876;28;20217;-80
2021/06/30 10:41:54;;;;;;;1.50;1.20;;;;;21.40;101062.00;;;;5098953;28;20206;-84
2021/06/30 10:44:24;;;;;;;2.15;1.48;;;;;21.40;101060.00;;;;5097696;28;20216;-83
2021/06/30 10:46:53;;;;;;;1.50;1.33;;;;;21.40;101062.00;;;;5109954;28;20655;-83
2021/06/30 10:49:23;;;;;;;2.03;1.52;;;;;21.40;101061.00;;;;5091537;28;20206;-81
2021/06/30 10:51:52;;;;;;;1.63;1.52;;;;;21.40;101059.00;;;;5106653;28;20229;-82
2021/06/30 10:54:40;;;;;;;1.48;1.17;;;;;21.30;101063.00;;;;5107265;28;20198;-81
2021/06/30 10:57:26;;;;;;;1.42;1.23;;;;;21.30;101060.00;;;;5108133;28;20194;-81
2021/06/30 11:00:13;;;;;;;1.65;1.27;;;;;21.30;101063.00;;;;5105017;28;20221;-81
2021/06/30 11:02:40;;;;;;;1.30;1.20;;;;;21.40;101071.00;;;;5090896;28;20203;-81
2021/06/30 11:05:33;;;;;;;1.20;1.10;;;;;21.30;101079.00;;;;5107043;28;20689;-81
2021/06/30 11:08:00;;;;;;;1.95;1.25;;;;;21.40;101067.00;;;;5108400;28;20647;-79
2021/06/30 11:10:53;;;;;;;2.95;1.63;;;;;21.40;101065.00;;;;5100362;28;20226;-79
2021/06/30 11:13:22;;;;;;;1.83;1.40;;;;;21.50;101063.00;;;;5098600;28;20209;-80
2021/06/30 11:15:49;;;;;;;2.35;1.25;;;;;21.50;101070.00;;;;5102346;28;20198;-80
2021/06/30 11:18:42;;;;;;;2.60;1.70;;;;;21.40;101078.00;;;;5105506;28;20194;-78
2021/06/30 11:21:11;;;;;;;2.85;1.83;;;;;21.50;101078.00;;;;5101206;28;20221;-80
2021/06/30 11:23:43;;;;;;;4.22;1.67;;;;;21.40;101078.00;;;;5099291;28;20289;-80
2021/06/30 11:26:34;;;;;;;2.33;2.13;;;;;21.30;101081.00;;;;5099043;28;20586;-79
2021/06/30 11:29:25;;;;;;;2.08;1.75;;;;;21.40;101082.00;;;;5093684;28;20204;-79
2021/06/30 11:31:52;;;;;;;2.53;1.60;;;;;21.40;101074.00;;;;5100546;28;20715;-80
2021/06/30 11:34:23;;;;;;;1.90;1.80;;;;;21.40;101080.00;;;;5089461;28;20206;-80
2021/06/30 11:36:50;;;;;;;2.35;1.70;;;;;21.50;101082.00;;;;5103047;28;20221;-80
2021/06/30 11:39:20;;;;;;;2.20;1.63;;;;;21.50;101078.00;;;;5109024;28;20233;-80
2021/06/30 11:41:52;;;;;;;3.55;2.15;;;;;21.50;101084.00;;;;5104332;28;20712;-80
2021/06/30 11:44:33;;;;;;;2.20;1.90;;;;;21.50;101085.00;;;;5096295;28;20202;-83
2021/06/30 11:47:04;;;;;;;1.88;1.52;;;;;21.50;101085.00;;;;5109236;28;20687;-82
2021/06/30 11:49:32;;;;;;;4.60;2.30;;;;;21.50;101086.00;;;;5107039;28;20201;-82
2021/06/30 11:51:59;;;;;;;4.05;2.35;;;;;21.50;101086.00;;;;5098831;28;20222;-80
2021/06/30 11:54:29;;;;;;;2.35;2.10;;;;;21.50;101083.00;;;;5099468;28;20198;-81
2021/06/30 11:56:57;;;;;;;5.57;2.78;;;;;21.60;101083.00;;;;5108706;28;20196;-81
2021/06/30 11:59:27;;;;;;;4.00;2.25;;;;;21.50;101092.00;;;;5101296;28;20709;-81
2021/06/30 12:01:55;;;;;;;4.07;2.08;;;;;21.60;101089.00;;;;5105424;28;20194;-82
2021/06/30 12:04:23;;;;;;;4.43;2.50;;;;;21.60;101099.00;;;;5104449;28;20603;-80
2021/06/30 12:06:56;;;;;;;3.53;2.72;;;;;21.60;101099.00;;;;5103048;28;20853;-82
2021/06/30 12:09:25;;;;;;;3.25;2.38;;;;;21.60;101104.00;;;;5105193;28;20686;-82
2021/06/30 12:11:56;;;;;;;4.57;2.42;;;;;21.60;101104.00;;;;5096372;28;20217;-84
2021/06/30 12:14:26;;;;;;;2.70;2.40;;;;;21.60;101104.00;;;;5100178;28;20224;-82
2021/06/30 12:16:55;;;;;;;3.72;2.78;;;;;21.60;101094.00;;;;5098494;28;20205;-82
2021/06/30 12:19:36;;;;;;;4.65;2.53;;;;;21.60;101101.00;;;;5106187;28;20667;-82
2021/06/30 12:22:20;;;;;;;3.72;2.67;;;;;21.50;101104.00;;;;5108087;28;20193;-83